Time;durP1;ratioP1;P1;durP2;ratioP2;P2;SDS_P1;SDS_P2;PMS_P1;PMS_P2;Temp;Humidity;BMP_temperature;BMP_pressure;BME280_temperature;BME280_humidity;BME280_pressure;Samples;Min_cycle;Max_cycle;Signal;HPM_P1;HPM_P2
2021/08/31 00:01:30;;;;;;;15.77;14.17;;;16.00;99.90;;;;;;5114522;27;20663;-36
2021/08/31 00:03:56;;;;;;;14.03;12.60;;;16.00;99.90;;;;;;5127970;27;20190;-36
2021/08/31 00:06:21;;;;;;;14.60;13.10;;;16.00;99.90;;;;;;5127314;27;20191;-37
2021/08/31 00:08:47;;;;;;;14.93;13.53;;;16.00;99.90;;;;;;5127445;27;20893;-36
2021/08/31 00:11:13;;;;;;;15.40;13.87;;;16.00;99.90;;;;;;5127626;27;20187;-38
2021/08/31 00:13:38;;;;;;;16.97;14.67;;;16.00;99.90;;;;;;5123109;27;20324;-37
2021/08/31 00:16:05;;;;;;;16.97;15.17;;;15.90;99.90;;;;;;5113677;27;20201;-36
2021/08/31 00:18:31;;;;;;;19.90;14.30;;;15.90;99.90;;;;;;5123296;27;20197;-37
2021/08/31 00:20:56;;;;;;;16.80;15.10;;;15.80;99.90;;;;;;5127487;27;20555;-36
2021/08/31 00:23:22;;;;;;;16.30;14.60;;;15.80;99.90;;;;;;5127316;27;20187;-37
2021/08/31 00:25:52;;;;;;;17.53;15.60;;;15.70;99.90;;;;;;5126843;27;20646;-36
2021/08/31 00:28:21;;;;;;;43.27;15.90;;;15.70;99.90;;;;;;5127259;27;20678;-36
2021/08/31 00:30:47;;;;;;;15.40;13.90;;;15.60;99.90;;;;;;5116781;27;20562;-37
2021/08/31 00:33:13;;;;;;;15.90;14.30;;;15.60;99.90;;;;;;5126405;27;20413;-36
2021/08/31 00:35:39;;;;;;;16.37;14.77;;;15.60;99.90;;;;;;5126396;27;20477;-37
2021/08/31 00:38:05;;;;;;;16.47;14.57;;;15.60;99.90;;;;;;5127272;27;20384;-37
2021/08/31 00:40:31;;;;;;;14.60;13.20;;;15.60;99.90;;;;;;5126273;27;20901;-36
2021/08/31 00:42:56;;;;;;;15.33;13.77;;;15.60;99.90;;;;;;5126921;27;20266;-37
2021/08/31 00:45:23;;;;;;;16.27;14.60;;;15.70;99.90;;;;;;5119413;27;20192;-37
2021/08/31 00:47:48;;;;;;;15.90;14.17;;;15.70;99.90;;;;;;5124384;27;20662;-36
2021/08/31 00:50:17;;;;;;;16.23;14.23;;;15.60;99.90;;;;;;5126522;27;20467;-37
2021/08/31 00:52:43;;;;;;;15.90;14.40;;;15.60;99.90;;;;;;5127035;27;20195;-37
2021/08/31 00:55:10;;;;;;;16.10;14.50;;;15.60;99.90;;;;;;5126417;27;20515;-37
2021/08/31 00:57:40;;;;;;;16.43;14.60;;;15.50;99.90;;;;;;5125849;27;20428;-36
2021/08/31 01:00:08;;;;;;;18.87;14.97;;;15.50;99.90;;;;;;5122152;27;20493;-36
2021/08/31 01:02:34;;;;;;;16.30;14.73;;;15.50;99.90;;;;;;5119156;27;20513;-38
2021/08/31 01:05:00;;;;;;;16.60;14.90;;;15.50;99.90;;;;;;5125654;27;20906;-37
2021/08/31 01:07:27;;;;;;;18.20;16.33;;;15.50;99.90;;;;;;5125745;27;20945;-37
2021/08/31 01:09:53;;;;;;;18.33;16.43;;;15.50;99.90;;;;;;5126515;27;20587;-36
2021/08/31 01:12:19;;;;;;;17.50;15.10;;;15.50;99.90;;;;;;5126601;27;20433;-37
2021/08/31 01:14:46;;;;;;;19.73;15.60;;;15.50;99.90;;;;;;5113808;27;20851;-37
2021/08/31 01:17:12;;;;;;;17.73;14.83;;;15.50;99.90;;;;;;5118779;27;20432;-37
2021/08/31 01:19:38;;;;;;;16.90;15.17;;;15.50;99.90;;;;;;5126766;27;20428;-37
2021/08/31 01:22:07;;;;;;;17.67;15.90;;;15.50;99.90;;;;;;5126328;27;20211;-37
2021/08/31 01:24:34;;;;;;;18.70;16.73;;;15.60;99.90;;;;;;5126404;28;20690;-37
2021/08/31 01:27:00;;;;;;;18.47;16.63;;;15.60;99.90;;;;;;5112011;28;20640;-36
2021/08/31 01:29:30;;;;;;;18.10;16.27;;;15.60;99.90;;;;;;5126399;28;20417;-38
2021/08/31 01:31:56;;;;;;;19.90;17.80;;;15.60;99.90;;;;;;5118975;28;20478;-37
2021/08/31 01:34:22;;;;;;;19.30;17.30;;;15.60;99.90;;;;;;5125505;28;20946;-37
2021/08/31 01:36:48;;;;;;;17.20;15.40;;;15.60;99.90;;;;;;5105236;28;20802;-36
2021/08/31 01:39:14;;;;;;;19.07;17.10;;;15.60;99.90;;;;;;5118917;28;20221;-36
2021/08/31 01:41:39;;;;;;;16.97;15.30;;;15.60;99.90;;;;;;5126292;28;20281;-37
2021/08/31 01:44:05;;;;;;;19.33;17.33;;;15.70;99.90;;;;;;5126912;27;20497;-37
2021/08/31 01:46:32;;;;;;;19.60;17.60;;;15.70;99.90;;;;;;5120085;27;20236;-36
2021/08/31 01:48:57;;;;;;;19.33;17.43;;;15.70;99.90;;;;;;5128224;27;20481;-36
2021/08/31 01:51:23;;;;;;;24.03;18.20;;;15.70;99.90;;;;;;5126995;27;20432;-36
2021/08/31 01:53:49;;;;;;;19.90;15.97;;;15.60;99.90;;;;;;5130615;27;20197;-36
2021/08/31 01:56:15;;;;;;;20.60;18.10;;;15.60;99.90;;;;;;5129611;27;20274;-37
2021/08/31 01:58:40;;;;;;;23.30;18.43;;;15.60;99.90;;;;;;5130331;27;20339;-37
2021/08/31 02:01:06;;;;;;;18.90;16.20;;;15.60;99.90;;;;;;5124772;27;20797;-36
2021/08/31 02:03:32;;;;;;;17.60;15.70;;;15.60;99.90;;;;;;5126239;27;20578;-37
2021/08/31 02:05:58;;;;;;;19.83;17.70;;;15.70;99.90;;;;;;5129183;27;20408;-36
2021/08/31 02:08:24;;;;;;;17.53;15.60;;;15.70;99.90;;;;;;5130146;27;20202;-36
2021/08/31 02:10:49;;;;;;;17.33;15.53;;;15.70;99.90;;;;;;5130121;27;20560;-37
2021/08/31 02:13:15;;;;;;;17.70;15.80;;;15.70;99.90;;;;;;5129266;27;20435;-37
2021/08/31 02:15:41;;;;;;;18.73;16.73;;;15.70;99.90;;;;;;5108329;28;20324;-36
2021/08/31 02:18:07;;;;;;;17.63;15.47;;;15.80;99.90;;;;;;5122312;27;20505;-36
2021/08/31 02:20:33;;;;;;;16.87;15.07;;;15.80;99.90;;;;;;5129441;27;20207;-37
2021/08/31 02:22:59;;;;;;;17.43;15.30;;;15.80;99.90;;;;;;5129716;27;20240;-37
2021/08/31 02:25:25;;;;;;;17.03;15.33;;;15.80;99.90;;;;;;5129768;27;20191;-36
2021/08/31 02:27:51;;;;;;;19.73;14.90;;;15.80;99.90;;;;;;5110673;27;20423;-37
2021/08/31 02:30:16;;;;;;;17.57;15.73;;;15.80;99.90;;;;;;5129965;27;20226;-37
2021/08/31 02:32:45;;;;;;;17.30;15.50;;;15.80;99.90;;;;;;5121235;27;20848;-37
2021/08/31 02:35:11;;;;;;;16.03;14.43;;;15.80;99.90;;;;;;5125826;27;20195;-36
2021/08/31 02:37:37;;;;;;;16.00;14.30;;;15.80;99.90;;;;;;5129108;27;20771;-37
2021/08/31 02:40:04;;;;;;;16.30;14.30;;;15.80;99.90;;;;;;5129145;27;20460;-36
2021/08/31 02:42:30;;;;;;;17.30;15.60;;;15.80;99.90;;;;;;5129677;27;20187;-36
2021/08/31 02:44:56;;;;;;;17.87;15.03;;;15.80;99.90;;;;;;5129626;27;20413;-36
2021/08/31 02:47:22;;;;;;;16.43;14.73;;;15.80;99.90;;;;;;5119844;27;20439;-36
2021/08/31 02:49:47;;;;;;;17.23;15.20;;;15.80;99.90;;;;;;5120596;27;20183;-37
2021/08/31 02:52:13;;;;;;;16.20;14.53;;;15.80;99.90;;;;;;5124139;27;20277;-37
2021/08/31 02:54:39;;;;;;;16.33;14.60;;;15.80;99.90;;;;;;5129171;27;20711;-37
2021/08/31 02:57:05;;;;;;;16.40;14.10;;;15.80;99.90;;;;;;5127762;27;20855;-36
2021/08/31 02:59:31;;;;;;;18.20;16.07;;;15.80;99.90;;;;;;5129164;27;20461;-36
2021/08/31 03:02:09;;;;;;;18.53;15.90;;;15.70;99.90;;;;;;5118903;27;20245;-36
2021/08/31 03:04:36;;;;;;;17.90;15.23;;;15.70;99.90;;;;;;5128992;27;20408;-36
2021/08/31 03:07:07;;;;;;;19.00;16.80;;;15.70;99.90;;;;;;5111185;27;20525;-38
2021/08/31 03:09:33;;;;;;;16.50;14.60;;;15.70;99.90;;;;;;5111448;27;20851;-37
2021/08/31 03:11:59;;;;;;;17.43;14.73;;;15.60;99.90;;;;;;5128599;27;20412;-37
2021/08/31 03:14:25;;;;;;;19.00;15.30;;;15.60;99.90;;;;;;5118779;27;20195;-37
2021/08/31 03:16:51;;;;;;;17.17;15.37;;;15.60;99.90;;;;;;5108815;27;20421;-36
2021/08/31 03:19:17;;;;;;;17.50;15.63;;;15.60;99.90;;;;;;5121794;27;20507;-37
2021/08/31 03:21:43;;;;;;;16.90;14.93;;;15.50;99.90;;;;;;5128470;27;20459;-37
2021/08/31 03:24:09;;;;;;;19.80;15.13;;;15.50;99.90;;;;;;5128658;27;20425;-37
2021/08/31 03:26:35;;;;;;;17.83;15.90;;;15.50;99.90;;;;;;5127970;27;20241;-37
2021/08/31 03:29:00;;;;;;;17.67;15.87;;;15.50;99.90;;;;;;5128871;27;20294;-37
2021/08/31 03:31:26;;;;;;;17.97;16.00;;;15.50;99.90;;;;;;5123558;27;20527;-37
2021/08/31 03:33:52;;;;;;;20.03;18.00;;;15.40;99.90;;;;;;5120165;27;20198;-37
2021/08/31 03:36:17;;;;;;;18.20;16.10;;;15.40;99.90;;;;;;5127980;27;20221;-37
2021/08/31 03:38:43;;;;;;;18.63;15.93;;;15.40;99.90;;;;;;5128210;27;20208;-38
2021/08/31 03:41:09;;;;;;;18.07;16.20;;;15.40;99.90;;;;;;5128348;27;20708;-36
2021/08/31 03:43:34;;;;;;;22.10;16.93;;;15.50;99.90;;;;;;5128268;27;20187;-36
2021/08/31 03:46:00;;;;;;;19.63;16.43;;;15.40;99.90;;;;;;5126218;27;20186;-36
2021/08/31 03:48:26;;;;;;;20.30;17.60;;;15.50;99.90;;;;;;5120738;27;20183;-37
2021/08/31 03:50:51;;;;;;;20.60;18.43;;;15.50;99.90;;;;;;5127706;27;20195;-36
2021/08/31 03:53:17;;;;;;;19.50;17.27;;;15.40;99.90;;;;;;5128146;27;20186;-37
2021/08/31 03:55:43;;;;;;;19.97;17.80;;;15.50;99.90;;;;;;5127322;27;20269;-37
2021/08/31 03:58:08;;;;;;;19.23;16.97;;;15.50;99.90;;;;;;5128058;27;20630;-36
2021/08/31 04:00:34;;;;;;;20.40;18.20;;;15.50;99.90;;;;;;5127415;27;20784;-37
2021/08/31 04:03:01;;;;;;;19.77;17.77;;;15.40;99.90;;;;;;5116992;27;20221;-37
2021/08/31 04:05:27;;;;;;;18.40;16.50;;;15.40;99.90;;;;;;5123993;27;20193;-37
2021/08/31 04:07:52;;;;;;;18.17;16.20;;;15.40;99.90;;;;;;5126921;27;20731;-36
2021/08/31 04:10:18;;;;;;;17.57;15.77;;;15.40;99.90;;;;;;5127472;27;20425;-37
2021/08/31 04:12:44;;;;;;;18.90;16.23;;;15.30;99.90;;;;;;5127377;27;20191;-36
2021/08/31 04:15:10;;;;;;;17.53;15.57;;;15.40;99.90;;;;;;5110440;27;20348;-36
2021/08/31 04:17:36;;;;;;;19.60;16.00;;;15.40;99.90;;;;;;5106033;27;20184;-37
2021/08/31 04:20:02;;;;;;;18.20;16.37;;;15.40;99.90;;;;;;5126494;27;20479;-37
2021/08/31 04:22:27;;;;;;;17.27;15.50;;;15.40;99.90;;;;;;5127273;27;20183;-36
2021/08/31 04:24:53;;;;;;;17.97;15.30;;;15.30;99.90;;;;;;5127611;27;20428;-37
2021/08/31 04:27:19;;;;;;;18.50;16.40;;;15.30;99.90;;;;;;5127107;27;20204;-37
2021/08/31 04:29:44;;;;;;;17.33;15.63;;;15.30;99.90;;;;;;5126958;27;20530;-37
2021/08/31 04:32:10;;;;;;;19.27;16.77;;;15.30;99.90;;;;;;5102605;27;20171;-36
2021/08/31 04:34:36;;;;;;;17.47;15.67;;;15.30;99.90;;;;;;5123498;27;20263;-36
2021/08/31 04:37:01;;;;;;;17.97;15.93;;;15.30;99.90;;;;;;5126439;27;20677;-36
2021/08/31 04:39:27;;;;;;;20.47;16.30;;;15.20;99.90;;;;;;5126940;27;20179;-37
2021/08/31 04:41:52;;;;;;;18.37;16.47;;;15.20;99.90;;;;;;5126981;27;20206;-37
2021/08/31 04:44:18;;;;;;;19.90;16.03;;;15.20;99.90;;;;;;5126688;27;20527;-37
2021/08/31 04:46:44;;;;;;;21.83;17.13;;;15.10;99.90;;;;;;5123394;27;20647;-36
2021/08/31 04:49:09;;;;;;;19.50;17.40;;;15.20;99.90;;;;;;5121699;27;20211;-37
2021/08/31 04:51:35;;;;;;;21.43;17.50;;;15.20;99.90;;;;;;5126841;27;20271;-37
2021/08/31 04:54:00;;;;;;;20.40;18.20;;;15.20;99.90;;;;;;5126726;27;20485;-37
2021/08/31 04:56:26;;;;;;;20.80;18.60;;;15.20;99.90;;;;;;5126586;27;20269;-37
2021/08/31 04:58:52;;;;;;;19.30;17.37;;;15.30;99.90;;;;;;5126475;27;20714;-36
2021/08/31 05:01:17;;;;;;;21.23;18.10;;;15.20;99.90;;;;;;5126845;27;20618;-37
2021/08/31 05:03:43;;;;;;;20.80;18.50;;;15.20;99.90;;;;;;5117191;27;20199;-36
2021/08/31 05:06:10;;;;;;;22.03;18.33;;;15.20;99.90;;;;;;5119007;27;20198;-37
2021/08/31 05:08:36;;;;;;;21.57;18.97;;;15.20;99.90;;;;;;5126755;27;20636;-36
2021/08/31 05:11:02;;;;;;;22.80;20.40;;;15.30;99.90;;;;;;5126788;27;20949;-36
2021/08/31 05:13:27;;;;;;;24.10;19.17;;;15.30;99.90;;;;;;5123062;27;20432;-36
2021/08/31 05:15:53;;;;;;;23.20;20.70;;;15.30;99.90;;;;;;5115971;27;20698;-36
2021/08/31 05:18:19;;;;;;;27.67;22.27;;;15.30;99.90;;;;;;5113930;27;20187;-36
2021/08/31 05:20:45;;;;;;;25.67;21.27;;;15.30;99.90;;;;;;5126097;27;20483;-36
2021/08/31 05:23:10;;;;;;;28.03;22.50;;;15.30;99.90;;;;;;5126600;27;20650;-36
2021/08/31 05:25:37;;;;;;;24.50;21.57;;;15.40;99.90;;;;;;5126094;28;20187;-36
2021/08/31 05:28:03;;;;;;;32.40;23.50;;;15.40;99.90;;;;;;5126325;28;20210;-37
2021/08/31 05:30:29;;;;;;;29.20;23.40;;;15.40;99.90;;;;;;5126055;28;20448;-36
2021/08/31 05:32:54;;;;;;;29.27;24.67;;;15.40;99.90;;;;;;5118849;28;20248;-36
2021/08/31 05:35:20;;;;;;;30.03;24.30;;;15.40;99.90;;;;;;5124898;28;20235;-36
2021/08/31 05:37:46;;;;;;;31.43;24.07;;;15.40;99.90;;;;;;5122381;28;20262;-37
2021/08/31 05:40:12;;;;;;;27.30;22.97;;;15.40;99.90;;;;;;5123221;28;20202;-37
2021/08/31 05:42:37;;;;;;;28.33;22.60;;;15.40;99.90;;;;;;5125758;28;20502;-37
2021/08/31 05:45:03;;;;;;;29.47;25.47;;;15.40;99.90;;;;;;5126329;28;20425;-36
2021/08/31 05:47:29;;;;;;;30.63;24.73;;;15.40;99.90;;;;;;5119593;28;20311;-36
2021/08/31 05:49:55;;;;;;;30.20;25.17;;;15.50;99.90;;;;;;5118604;28;20453;-36
2021/08/31 05:52:20;;;;;;;31.17;24.80;;;15.50;99.90;;;;;;5107922;28;20215;-37
2021/08/31 05:54:46;;;;;;;34.40;26.00;;;15.50;99.90;;;;;;5126129;28;20179;-36
2021/08/31 05:57:11;;;;;;;32.97;25.27;;;15.40;99.90;;;;;;5125103;28;20187;-36
2021/08/31 05:59:41;;;;;;;31.33;24.53;;;15.50;99.90;;;;;;5126270;28;20262;-37
2021/08/31 06:02:08;;;;;;;31.97;25.63;;;15.40;99.90;;;;;;5125321;28;20198;-37
2021/08/31 06:04:35;;;;;;;28.23;24.23;;;15.50;99.90;;;;;;5119351;28;20428;-36
2021/08/31 06:07:04;;;;;;;28.73;22.10;;;15.50;99.90;;;;;;5123611;28;20723;-36
2021/08/31 06:09:31;;;;;;;28.20;22.40;;;15.40;99.90;;;;;;5126115;28;20429;-36
2021/08/31 06:11:58;;;;;;;31.33;22.10;;;15.40;99.90;;;;;;5125995;28;20413;-37
2021/08/31 06:14:24;;;;;;;29.37;22.00;;;15.50;99.90;;;;;;5125829;28;20817;-36
2021/08/31 06:16:49;;;;;;;28.57;22.00;;;15.40;99.90;;;;;;5106317;28;20501;-37
2021/08/31 06:19:16;;;;;;;26.97;21.63;;;15.40;99.90;;;;;;5096780;28;20244;-37
2021/08/31 06:21:42;;;;;;;28.87;21.70;;;15.40;99.90;;;;;;5125008;28;20215;-36
2021/08/31 06:24:08;;;;;;;27.13;22.57;;;15.40;99.90;;;;;;5124287;28;20935;-37
2021/08/31 06:26:33;;;;;;;28.73;21.80;;;15.40;99.90;;;;;;5121365;28;20196;-36
2021/08/31 06:28:59;;;;;;;26.33;20.63;;;15.40;99.90;;;;;;5125068;28;20171;-36
2021/08/31 06:31:25;;;;;;;26.87;21.23;;;15.40;99.90;;;;;;5124533;27;20244;-36
2021/08/31 06:33:50;;;;;;;26.73;21.17;;;15.40;99.90;;;;;;5125046;27;20218;-37
2021/08/31 06:36:16;;;;;;;27.43;21.80;;;15.40;99.90;;;;;;5127828;27;20223;-36
2021/08/31 06:38:42;;;;;;;25.80;19.13;;;15.40;99.90;;;;;;5127767;27;20191;-36
2021/08/31 06:41:08;;;;;;;27.20;20.67;;;15.40;99.90;;;;;;5110267;27;20476;-36
2021/08/31 06:43:34;;;;;;;27.87;21.47;;;15.40;99.90;;;;;;5129452;27;20232;-36
2021/08/31 06:46:00;;;;;;;29.60;21.20;;;15.40;99.90;;;;;;5128386;27;20425;-36
2021/08/31 06:48:25;;;;;;;27.70;20.57;;;15.40;99.90;;;;;;5103711;27;20237;-36
2021/08/31 06:50:51;;;;;;;31.97;21.57;;;15.40;99.90;;;;;;5122521;27;20211;-36
2021/08/31 06:53:16;;;;;;;25.90;20.63;;;15.40;99.90;;;;;;5128817;27;20206;-37
2021/08/31 06:55:42;;;;;;;30.27;21.40;;;15.40;99.90;;;;;;5109004;27;20680;-36
2021/08/31 06:58:08;;;;;;;26.83;20.27;;;15.40;99.90;;;;;;5126887;27;20674;-36
2021/08/31 07:00:34;;;;;;;24.27;19.30;;;15.40;99.90;;;;;;5125079;27;20200;-37
2021/08/31 07:03:00;;;;;;;27.87;20.07;;;15.40;99.90;;;;;;5122715;27;21008;-37
2021/08/31 07:05:25;;;;;;;24.73;19.03;;;15.40;99.90;;;;;;5090040;27;20447;-36
2021/08/31 07:07:52;;;;;;;28.17;19.07;;;15.40;99.90;;;;;;5127080;27;20640;-36
2021/08/31 07:10:18;;;;;;;29.37;20.30;;;15.40;99.90;;;;;;5126984;27;20483;-36
2021/08/31 07:12:43;;;;;;;28.77;18.87;;;15.50;99.90;;;;;;5129981;27;20966;-36
2021/08/31 07:15:10;;;;;;;30.90;20.47;;;15.50;99.90;;;;;;5123206;27;20485;-36
2021/08/31 07:17:36;;;;;;;28.83;18.40;;;15.50;99.90;;;;;;5126920;27;20201;-36
2021/08/31 07:20:03;;;;;;;27.83;19.13;;;15.50;99.90;;;;;;5109710;27;20555;-36
2021/08/31 07:22:28;;;;;;;23.23;16.77;;;15.40;99.90;;;;;;5124202;27;20428;-36
2021/08/31 07:24:54;;;;;;;21.20;16.77;;;15.50;99.90;;;;;;5118835;27;20911;-36
2021/08/31 07:27:20;;;;;;;23.90;17.17;;;15.50;99.90;;;;;;5118577;27;20191;-36
2021/08/31 07:29:45;;;;;;;24.70;16.67;;;15.50;99.90;;;;;;5109902;27;20222;-36
2021/08/31 07:32:11;;;;;;;23.47;16.97;;;15.60;99.90;;;;;;5128190;27;20260;-38
2021/08/31 07:34:39;;;;;;;21.30;15.70;;;15.50;99.90;;;;;;5124850;27;20564;-36
2021/08/31 07:37:06;;;;;;;19.73;15.00;;;15.60;99.90;;;;;;5122931;27;20610;-36
2021/08/31 07:39:32;;;;;;;25.57;17.90;;;15.60;99.90;;;;;;5128136;27;20456;-36
2021/08/31 07:41:58;;;;;;;22.53;16.63;;;15.60;99.90;;;;;;5126946;27;20611;-36
2021/08/31 07:44:23;;;;;;;26.90;21.10;;;15.70;99.90;;;;;;5128044;27;20198;-37
2021/08/31 07:46:51;;;;;;;33.30;21.33;;;15.70;99.90;;;;;;5127726;27;20206;-36
2021/08/31 07:49:17;;;;;;;26.80;19.93;;;15.70;99.90;;;;;;5127759;27;20235;-36
2021/08/31 07:51:44;;;;;;;32.80;23.67;;;15.70;99.90;;;;;;5118735;27;20436;-36
2021/08/31 07:54:11;;;;;;;37.10;24.30;;;15.70;99.90;;;;;;5123673;27;20418;-36
2021/08/31 07:56:37;;;;;;;35.10;24.63;;;15.70;99.90;;;;;;5107232;28;20421;-36
2021/08/31 07:59:04;;;;;;;31.83;24.07;;;15.70;99.90;;;;;;5117283;27;20777;-37
2021/08/31 08:01:30;;;;;;;34.37;24.33;;;15.70;99.90;;;;;;5127643;27;20471;-37
2021/08/31 08:03:57;;;;;;;34.03;24.00;;;15.70;99.90;;;;;;5127838;27;20815;-36
2021/08/31 08:06:22;;;;;;;34.60;23.00;;;15.80;99.90;;;;;;5115415;27;20429;-37
2021/08/31 08:08:48;;;;;;;33.73;21.93;;;15.80;99.90;;;;;;5123965;27;20585;-37
2021/08/31 08:11:14;;;;;;;35.07;24.07;;;15.80;99.90;;;;;;5109918;27;20649;-36
2021/08/31 08:13:40;;;;;;;28.37;21.03;;;15.80;99.90;;;;;;5122044;27;20195;-36
2021/08/31 08:16:05;;;;;;;29.87;21.53;;;15.80;99.90;;;;;;5104956;28;20421;-36
2021/08/31 08:18:31;;;;;;;25.37;18.73;;;15.80;99.90;;;;;;5104334;28;20653;-36
2021/08/31 08:20:57;;;;;;;26.90;19.93;;;15.80;99.90;;;;;;5108736;27;20286;-36
2021/08/31 08:23:23;;;;;;;24.90;19.47;;;15.80;99.90;;;;;;5124993;27;20753;-36
2021/08/31 08:25:49;;;;;;;25.60;19.27;;;15.80;99.90;;;;;;5126437;27;20192;-36
2021/08/31 08:28:15;;;;;;;31.60;20.57;;;15.90;99.90;;;;;;5126423;27;20783;-36
2021/08/31 08:30:41;;;;;;;28.07;19.50;;;15.90;99.90;;;;;;5127011;27;20841;-36
2021/08/31 08:33:07;;;;;;;30.30;21.37;;;16.00;99.90;;;;;;5107879;27;20507;-36
2021/08/31 08:35:32;;;;;;;26.07;19.50;;;16.00;99.90;;;;;;5121277;27;20191;-36
2021/08/31 08:37:59;;;;;;;26.73;19.23;;;16.00;99.90;;;;;;5125160;27;20183;-36
2021/08/31 08:40:25;;;;;;;30.17;19.50;;;16.20;99.90;;;;;;5126378;27;20271;-36
2021/08/31 08:42:52;;;;;;;27.57;19.10;;;16.30;99.90;;;;;;5126183;27;20420;-36
2021/08/31 08:45:19;;;;;;;24.43;17.67;;;16.40;99.90;;;;;;5126498;27;20646;-36
2021/08/31 08:47:44;;;;;;;22.20;16.40;;;16.60;99.90;;;;;;5107497;27;20637;-36
2021/08/31 08:50:11;;;;;;;22.37;16.60;;;16.70;99.90;;;;;;5105602;28;20821;-37
2021/08/31 08:52:37;;;;;;;19.97;16.17;;;16.70;99.90;;;;;;5120375;27;20175;-36
2021/08/31 08:55:10;;;;;;;20.50;14.97;;;16.80;99.90;;;;;;5123798;27;20477;-37
2021/08/31 08:57:37;;;;;;;21.50;15.00;;;16.80;99.90;;;;;;5126299;27;21039;-36
2021/08/31 09:00:08;;;;;;;20.90;14.73;;;16.80;99.90;;;;;;5126922;27;20412;-36
2021/08/31 09:02:40;;;;;;;19.40;15.90;;;16.90;99.90;;;;;;5126857;27;20424;-36
2021/08/31 09:05:08;;;;;;;19.63;14.43;;;16.90;99.90;;;;;;5124444;27;20448;-36
2021/08/31 09:07:42;;;;;;;20.63;15.20;;;16.90;99.90;;;;;;5117881;27;20439;-36
2021/08/31 09:10:19;;;;;;;21.17;14.70;;;16.90;99.90;;;;;;5119677;27;20628;-37
2021/08/31 09:12:47;;;;;;;17.40;14.17;;;17.00;99.90;;;;;;5126644;27;20892;-36
2021/08/31 09:15:23;;;;;;;25.53;17.87;;;17.00;99.90;;;;;;5124688;27;20825;-36
2021/08/31 09:18:07;;;;;;;20.47;14.80;;;17.10;99.90;;;;;;5124695;27;20951;-36
2021/08/31 09:20:45;;;;;;;16.97;13.87;;;17.10;99.90;;;;;;5122728;27;20457;-37
2021/08/31 09:23:20;;;;;;;19.30;14.07;;;17.10;99.90;;;;;;5122209;27;20476;-36
2021/08/31 09:25:49;;;;;;;21.07;14.60;;;17.20;99.90;;;;;;5119168;28;20789;-36
2021/08/31 09:28:21;;;;;;;20.17;13.90;;;17.30;99.90;;;;;;5126414;28;20507;-36
2021/08/31 09:30:59;;;;;;;21.00;14.10;;;17.40;99.90;;;;;;5126001;28;20423;-36
2021/08/31 09:33:29;;;;;;;16.40;12.60;;;17.50;99.90;;;;;;5126335;28;20787;-36
2021/08/31 09:36:09;;;;;;;16.97;13.10;;;17.60;99.90;;;;;;5118744;28;20497;-36
2021/08/31 09:38:48;;;;;;;15.90;12.60;;;17.70;99.90;;;;;;5126343;28;20424;-36
2021/08/31 09:41:34;;;;;;;15.30;12.87;;;17.70;99.90;;;;;;5125739;28;20471;-36
2021/08/31 09:44:02;;;;;;;12.67;11.33;;;17.80;99.90;;;;;;5126520;28;20823;-36
2021/08/31 09:46:51;;;;;;;12.77;11.23;;;17.80;99.90;;;;;;5125811;28;20416;-36
2021/08/31 09:49:28;;;;;;;16.93;12.80;;;17.90;99.90;;;;;;5126079;28;20416;-36
2021/08/31 09:52:24;;;;;;;15.87;12.17;;;17.90;99.90;;;;;;5117704;28;20949;-36
2021/08/31 09:54:50;;;;;;;15.90;12.60;;;17.90;99.90;;;;;;5116237;28;20842;-37
2021/08/31 09:57:26;;;;;;;14.17;11.53;;;18.00;99.90;;;;;;5126016;28;20432;-36
2021/08/31 09:59:52;;;;;;;15.10;10.27;;;18.10;99.90;;;;;;5107383;28;20507;-36
2021/08/31 10:02:18;;;;;;;14.10;10.10;;;18.30;99.90;;;;;;5125727;28;20424;-36
2021/08/31 10:04:44;;;;;;;13.83;10.10;;;18.40;99.90;;;;;;5126292;27;20417;-36
2021/08/31 10:07:12;;;;;;;16.50;10.33;;;18.60;99.90;;;;;;5116726;27;20488;-37
2021/08/31 10:09:39;;;;;;;15.43;12.00;;;18.60;99.90;;;;;;5129975;27;20661;-36
2021/08/31 10:12:08;;;;;;;13.80;11.50;;;18.70;99.90;;;;;;5129854;27;20432;-36
2021/08/31 10:14:43;;;;;;;12.13;10.93;;;18.90;99.90;;;;;;5125276;27;20455;-36
2021/08/31 10:17:10;;;;;;;13.40;10.23;;;19.00;99.90;;;;;;5128362;27;20431;-36
2021/08/31 10:19:41;;;;;;;11.37;9.50;;;19.10;99.90;;;;;;5130168;27;20455;-36
2021/08/31 10:22:10;;;;;;;9.80;8.80;;;19.00;99.90;;;;;;5097140;28;20630;-36
2021/08/31 10:24:36;;;;;;;11.50;9.13;;;19.00;99.90;;;;;;5126779;27;20937;-36
2021/08/31 10:27:37;;;;;;;11.10;9.83;;;19.00;99.90;;;;;;5129069;27;20431;-36
2021/08/31 10:30:14;;;;;;;12.53;10.17;;;19.00;99.90;;;;;;5129796;27;20425;-36
2021/08/31 10:32:41;;;;;;;11.63;10.43;;;19.10;99.90;;;;;;5129297;27;20473;-36
2021/08/31 10:35:07;;;;;;;10.43;9.33;;;19.20;99.90;;;;;;5129219;27;20417;-36
2021/08/31 10:37:50;;;;;;;19.07;10.53;;;19.40;99.90;;;;;;5116421;27;20433;-36
2021/08/31 10:40:35;;;;;;;12.60;10.80;;;19.40;99.90;;;;;;5125937;27;20520;-37
2021/08/31 10:43:06;;;;;;;13.50;11.30;;;19.40;99.90;;;;;;5129201;27;20508;-36
2021/08/31 10:45:43;;;;;;;12.53;10.03;;;19.40;99.90;;;;;;5129627;27;20716;-36
2021/08/31 10:48:23;;;;;;;12.83;10.17;;;19.30;99.90;;;;;;5116731;27;20946;-36
2021/08/31 10:51:04;;;;;;;12.03;9.37;;;19.40;99.90;;;;;;5126487;27;21139;-36
2021/08/31 10:53:47;;;;;;;11.60;10.40;;;19.40;99.90;;;;;;5123204;27;20485;-36
2021/08/31 10:56:22;;;;;;;12.43;9.37;;;19.60;99.90;;;;;;5124940;27;20424;-36
2021/08/31 10:58:53;;;;;;;29.53;10.47;;;19.70;99.90;;;;;;5129210;27;20420;-36
2021/08/31 11:01:21;;;;;;;10.90;9.70;;;19.70;99.90;;;;;;5129039;27;20469;-36
2021/08/31 11:03:48;;;;;;;10.80;9.53;;;19.80;99.90;;;;;;5128744;27;20945;-36
2021/08/31 11:06:20;;;;;;;14.27;10.10;;;19.80;99.90;;;;;;5123231;27;20434;-36
2021/08/31 11:09:22;;;;;;;9.17;8.20;;;19.70;99.90;;;;;;5125630;27;20433;-36
2021/08/31 11:12:03;;;;;;;12.37;9.50;;;19.60;99.90;;;;;;5000161;28;20441;-36
2021/08/31 11:14:46;;;;;;;10.40;8.67;;;19.50;99.90;;;;;;5108126;27;20795;-36
2021/08/31 11:17:27;;;;;;;14.97;8.87;;;19.60;99.90;;;;;;5126375;27;20524;-36
2021/08/31 11:20:11;;;;;;;8.17;7.27;;;19.70;99.90;;;;;;5128915;27;20822;-36
2021/08/31 11:22:37;;;;;;;8.90;7.20;;;19.90;99.90;;;;;;5116092;27;20794;-36
2021/08/31 11:25:03;;;;;;;9.80;8.27;;;19.90;99.90;;;;;;5124387;27;20436;-36
2021/08/31 11:27:29;;;;;;;12.97;7.53;;;20.10;99.90;;;;;;5128406;27;20729;-36
2021/08/31 11:29:58;;;;;;;8.50;7.70;;;20.20;99.90;;;;;;5128529;27;20918;-36
2021/08/31 11:32:24;;;;;;;10.83;7.40;;;20.20;99.90;;;;;;5128605;27;20515;-36
2021/08/31 11:35:06;;;;;;;8.47;7.20;;;20.20;99.90;;;;;;5128484;27;20461;-36
2021/08/31 11:37:32;;;;;;;9.53;7.00;;;20.10;99.90;;;;;;5116902;27;20465;-36
2021/08/31 11:39:58;;;;;;;7.90;7.10;;;20.20;99.90;;;;;;5127038;27;20822;-36
2021/08/31 11:42:25;;;;;;;8.03;7.13;;;20.20;99.90;;;;;;5127910;27;20195;-36
2021/08/31 11:44:59;;;;;;;8.70;6.47;;;20.30;99.90;;;;;;5128225;27;20569;-36
2021/08/31 11:47:27;;;;;;;9.60;6.90;;;20.40;99.90;;;;;;5127853;27;20419;-36
2021/08/31 11:50:00;;;;;;;8.10;7.30;;;20.50;99.90;;;;;;5128484;27;20409;-36
2021/08/31 11:52:25;;;;;;;7.13;6.43;;;20.60;99.90;;;;;;5119803;27;20429;-36
2021/08/31 11:54:55;;;;;;;7.80;6.93;;;20.70;99.90;;;;;;5128269;27;21250;-36
2021/08/31 11:57:31;;;;;;;8.83;7.10;;;20.60;99.90;;;;;;5127722;27;20186;-36
2021/08/31 11:59:57;;;;;;;7.33;6.53;;;20.60;99.90;;;;;;5128299;27;20412;-36
2021/08/31 12:02:23;;;;;;;10.33;6.27;;;20.70;99.90;;;;;;5127442;27;20427;-36
2021/08/31 12:04:58;;;;;;;8.00;6.77;;;20.70;99.90;;;;;;5109120;27;20718;-36
2021/08/31 12:07:26;;;;;;;7.40;6.67;;;20.60;99.90;;;;;;5121326;27;20448;-36
2021/08/31 12:09:55;;;;;;;9.90;6.87;;;20.50;99.90;;;;;;5127896;27;20419;-36
2021/08/31 12:12:21;;;;;;;8.20;6.63;;;20.50;99.90;;;;;;5123633;27;20417;-37
2021/08/31 12:14:48;;;;;;;7.80;7.00;;;20.50;99.90;;;;;;5115470;27;20774;-36
2021/08/31 12:17:30;;;;;;;9.00;6.97;;;20.60;99.90;;;;;;5111849;27;20428;-37
2021/08/31 12:20:25;;;;;;;7.47;6.77;;;20.70;99.90;;;;;;5109266;27;20821;-37
2021/08/31 12:22:52;;;;;;;7.90;7.07;;;20.80;99.90;;;;;;5109726;27;20558;-36
2021/08/31 12:25:19;;;;;;;8.37;7.40;;;20.90;99.90;;;;;;5109123;27;20523;-36
2021/08/31 12:27:47;;;;;;;8.80;7.90;;;21.00;99.90;;;;;;5126852;27;20509;-36
2021/08/31 12:30:16;;;;;;;8.77;7.87;;;21.00;99.90;;;;;;5126722;27;20501;-36
2021/08/31 12:32:43;;;;;;;7.30;6.70;;;21.00;99.90;;;;;;5126953;27;20424;-37